Main page
METAR-TAF:

METAR-TAF

Airports :

Gran Canaria Airport

Gran Canaria, Spain

latitude: 27-56N, longitude: 015-23W, elevation: 23 m

Current weather observation

The report was made 40 minutes ago, at 11:00 UTC
Wind 27 kt from the North/Northeast
Temperature 24°C
Humidity 69%
Pressure 1017 hPa
Visibility 10 km or more
Few clouds at a height of 2000 ft
Scattered clouds at a height of 2500 ft

METAR: GCLP 231100Z 02027KT 9999 FEW020 SCT025 24/18 Q1017 NOSIG

Time: 12:40 (11:40 UTC)

Forecast

The report was made 3 hours and 40 minutes ago, at 08:00 UTC
Forecast valid from 23 at 09 UTC to 24 at 09 UTC
Wind 20 kt from the North
Visibility 10 km or more
Few clouds at a height of 2500 ft
Temporary
from 23 at 12 UTC to 23 at 20 UTC
Wind 25 kt from the North with gusts up to 35 kt
Probability 40% :
Temporary
from 23 at 10 UTC to 23 at 20 UTC
Wind 20 kt from the North with gusts up to 30 kt

TAF: GCLP 230800Z 2309/2409 01020KT 9999 FEW025 TX27/2314Z TN20/2405Z TEMPO 2312/2320 36025G35KT PROB40 TEMPO 2310/2320 01020G30KT

Weather observations and forecasts of more than 4000 airports (METAR and TAF reports).

The available stations are represented by yellow and red dots on the map.

Hover mouse over dot to see the name of the station.

Then click to see weather observations and forecasts.

To change the map : click on the green buttons with a black cross to zoom in, on the green button with a dash to zoom out, or on the green arrows for adjacent maps.


METAR-TAF: